sensor_id;sensor_type;location;lat;lon;timestamp;P1;durP1;ratioP1;P2;durP2;ratioP2
62990;SDS011;49084;48.204;16.202;2022-09-09T00:00:17;4.03;;;0.80;;
62990;SDS011;49084;48.204;16.202;2022-09-09T00:08:22;1.63;;;0.90;;
62990;SDS011;49084;48.204;16.202;2022-09-09T00:10:54;5.38;;;1.23;;
62990;SDS011;49084;48.204;16.202;2022-09-09T00:13:37;4.75;;;1.20;;
62990;SDS011;49084;48.204;16.202;2022-09-09T00:16:27;2.78;;;1.17;;
62990;SDS011;49084;48.204;16.202;2022-09-09T00:19:01;2.80;;;0.98;;
62990;SDS011;49084;48.204;16.202;2022-09-09T00:21:43;4.07;;;1.00;;
62990;SDS011;49084;48.204;16.202;2022-09-09T00:27:11;3.47;;;0.90;;
62990;SDS011;49084;48.204;16.202;2022-09-09T00:29:43;1.05;;;0.75;;
62990;SDS011;49084;48.204;16.202;2022-09-09T00:32:18;2.60;;;0.80;;
62990;SDS011;49084;48.204;16.202;2022-09-09T00:35:04;3.13;;;1.13;;
62990;SDS011;49084;48.204;16.202;2022-09-09T00:37:36;1.50;;;0.70;;
62990;SDS011;49084;48.204;16.202;2022-09-09T00:40:07;1.33;;;0.77;;
62990;SDS011;49084;48.204;16.202;2022-09-09T00:42:43;1.15;;;1.02;;
62990;SDS011;49084;48.204;16.202;2022-09-09T00:47:41;1.48;;;1.00;;
62990;SDS011;49084;48.204;16.202;2022-09-09T01:01:50;1.05;;;0.80;;
62990;SDS011;49084;48.204;16.202;2022-09-09T01:04:18;0.80;;;0.80;;
62990;SDS011;49084;48.204;16.202;2022-09-09T01:06:55;4.40;;;0.88;;
62990;SDS011;49084;48.204;16.202;2022-09-09T01:12:15;0.60;;;0.60;;
62990;SDS011;49084;48.204;16.202;2022-09-09T01:14:44;2.10;;;0.93;;
62990;SDS011;49084;48.204;16.202;2022-09-09T01:28:10;1.02;;;0.80;;
62990;SDS011;49084;48.204;16.202;2022-09-09T01:30:41;0.77;;;0.77;;
62990;SDS011;49084;48.204;16.202;2022-09-09T01:33:09;2.30;;;0.98;;
62990;SDS011;49084;48.204;16.202;2022-09-09T01:38:06;0.93;;;0.70;;
62990;SDS011;49084;48.204;16.202;2022-09-09T01:40:32;3.25;;;0.85;;
62990;SDS011;49084;48.204;16.202;2022-09-09T01:42:58;0.80;;;0.77;;
62990;SDS011;49084;48.204;16.202;2022-09-09T01:45:24;10.85;;;1.00;;
62990;SDS011;49084;48.204;16.202;2022-09-09T01:47:51;1.70;;;0.95;;
62990;SDS011;49084;48.204;16.202;2022-09-09T01:50:18;0.80;;;0.80;;
62990;SDS011;49084;48.204;16.202;2022-09-09T01:52:44;1.38;;;0.70;;
62990;SDS011;49084;48.204;16.202;2022-09-09T01:55:12;1.42;;;1.05;;
62990;SDS011;49084;48.204;16.202;2022-09-09T02:00:11;2.40;;;1.00;;
62990;SDS011;49084;48.204;16.202;2022-09-09T02:08:08;0.77;;;0.60;;
62990;SDS011;49084;48.204;16.202;2022-09-09T02:10:47;1.33;;;0.70;;
62990;SDS011;49084;48.204;16.202;2022-09-09T02:13:25;2.08;;;1.17;;
62990;SDS011;49084;48.204;16.202;2022-09-09T02:16:01;1.50;;;1.10;;
62990;SDS011;49084;48.204;16.202;2022-09-09T02:18:30;2.10;;;0.93;;
62990;SDS011;49084;48.204;16.202;2022-09-09T02:21:11;4.03;;;1.00;;
62990;SDS011;49084;48.204;16.202;2022-09-09T02:23:39;1.80;;;1.13;;
62990;SDS011;49084;48.204;16.202;2022-09-09T02:26:07;2.85;;;0.98;;
62990;SDS011;49084;48.204;16.202;2022-09-09T02:28:38;1.27;;;0.88;;
62990;SDS011;49084;48.204;16.202;2022-09-09T02:31:05;5.07;;;1.73;;
62990;SDS011;49084;48.204;16.202;2022-09-09T02:33:36;3.22;;;1.02;;
62990;SDS011;49084;48.204;16.202;2022-09-09T02:36:07;0.98;;;0.70;;
62990;SDS011;49084;48.204;16.202;2022-09-09T02:38:35;0.82;;;0.82;;
62990;SDS011;49084;48.204;16.202;2022-09-09T02:41:05;3.03;;;1.00;;
62990;SDS011;49084;48.204;16.202;2022-09-09T02:43:34;2.35;;;1.10;;
62990;SDS011;49084;48.204;16.202;2022-09-09T02:54:15;1.67;;;1.00;;
62990;SDS011;49084;48.204;16.202;2022-09-09T02:56:51;1.88;;;0.90;;
62990;SDS011;49084;48.204;16.202;2022-09-09T02:59:21;1.33;;;1.23;;
62990;SDS011;49084;48.204;16.202;2022-09-09T03:01:49;1.42;;;0.80;;
62990;SDS011;49084;48.204;16.202;2022-09-09T03:04:15;1.27;;;0.90;;
62990;SDS011;49084;48.204;16.202;2022-09-09T03:06:40;0.82;;;0.82;;
62990;SDS011;49084;48.204;16.202;2022-09-09T03:09:06;1.17;;;0.75;;
62990;SDS011;49084;48.204;16.202;2022-09-09T03:11:33;3.15;;;0.80;;
62990;SDS011;49084;48.204;16.202;2022-09-09T03:13:58;4.65;;;1.02;;
62990;SDS011;49084;48.204;16.202;2022-09-09T03:16:24;3.42;;;1.17;;
62990;SDS011;49084;48.204;16.202;2022-09-09T03:18:49;0.93;;;0.85;;
62990;SDS011;49084;48.204;16.202;2022-09-09T03:21:15;1.33;;;0.75;;
62990;SDS011;49084;48.204;16.202;2022-09-09T03:23:41;1.63;;;0.70;;
62990;SDS011;49084;48.204;16.202;2022-09-09T03:26:07;2.70;;;0.82;;
62990;SDS011;49084;48.204;16.202;2022-09-09T03:28:33;0.90;;;0.77;;
62990;SDS011;49084;48.204;16.202;2022-09-09T03:31:02;2.25;;;0.80;;
62990;SDS011;49084;48.204;16.202;2022-09-09T03:33:29;4.60;;;0.77;;
62990;SDS011;49084;48.204;16.202;2022-09-09T03:35:56;0.88;;;0.88;;
62990;SDS011;49084;48.204;16.202;2022-09-09T03:38:25;3.33;;;0.85;;
62990;SDS011;49084;48.204;16.202;2022-09-09T03:40:51;2.95;;;1.00;;
62990;SDS011;49084;48.204;16.202;2022-09-09T03:43:22;1.00;;;0.90;;
62990;SDS011;49084;48.204;16.202;2022-09-09T03:48:17;3.50;;;0.80;;
62990;SDS011;49084;48.204;16.202;2022-09-09T03:50:44;1.02;;;0.68;;
62990;SDS011;49084;48.204;16.202;2022-09-09T03:53:11;4.05;;;0.75;;
62990;SDS011;49084;48.204;16.202;2022-09-09T03:55:36;1.20;;;1.08;;
62990;SDS011;49084;48.204;16.202;2022-09-09T03:58:02;1.65;;;0.90;;
62990;SDS011;49084;48.204;16.202;2022-09-09T04:00:27;1.50;;;0.82;;
62990;SDS011;49084;48.204;16.202;2022-09-09T04:02:55;2.20;;;0.80;;
62990;SDS011;49084;48.204;16.202;2022-09-09T04:05:22;5.05;;;1.08;;
62990;SDS011;49084;48.204;16.202;2022-09-09T04:07:48;1.65;;;0.80;;
62990;SDS011;49084;48.204;16.202;2022-09-09T04:10:14;3.00;;;0.90;;
62990;SDS011;49084;48.204;16.202;2022-09-09T04:12:40;3.03;;;0.80;;
62990;SDS011;49084;48.204;16.202;2022-09-09T04:15:06;0.73;;;0.73;;
62990;SDS011;49084;48.204;16.202;2022-09-09T04:17:33;1.20;;;0.65;;
62990;SDS011;49084;48.204;16.202;2022-09-09T04:19:58;1.90;;;1.10;;
62990;SDS011;49084;48.204;16.202;2022-09-09T04:22:24;1.85;;;1.15;;
62990;SDS011;49084;48.204;16.202;2022-09-09T04:24:49;0.75;;;0.75;;
62990;SDS011;49084;48.204;16.202;2022-09-09T04:27:15;2.78;;;1.15;;
62990;SDS011;49084;48.204;16.202;2022-09-09T04:29:41;1.73;;;0.75;;
62990;SDS011;49084;48.204;16.202;2022-09-09T04:32:06;2.83;;;1.25;;
62990;SDS011;49084;48.204;16.202;2022-09-09T04:34:32;1.42;;;1.08;;
62990;SDS011;49084;48.204;16.202;2022-09-09T04:36:58;1.38;;;0.82;;
62990;SDS011;49084;48.204;16.202;2022-09-09T04:39:24;1.98;;;0.68;;
62990;SDS011;49084;48.204;16.202;2022-09-09T04:41:50;1.83;;;1.25;;
62990;SDS011;49084;48.204;16.202;2022-09-09T04:44:15;7.00;;;1.08;;
62990;SDS011;49084;48.204;16.202;2022-09-09T04:46:41;1.27;;;0.80;;
62990;SDS011;49084;48.204;16.202;2022-09-09T04:49:07;2.80;;;0.90;;
62990;SDS011;49084;48.204;16.202;2022-09-09T04:51:32;2.63;;;0.95;;
62990;SDS011;49084;48.204;16.202;2022-09-09T04:53:58;2.25;;;0.80;;
62990;SDS011;49084;48.204;16.202;2022-09-09T04:56:24;2.47;;;0.95;;
62990;SDS011;49084;48.204;16.202;2022-09-09T04:58:51;3.42;;;1.83;;
62990;SDS011;49084;48.204;16.202;2022-09-09T05:01:18;3.88;;;1.25;;
62990;SDS011;49084;48.204;16.202;2022-09-09T05:03:49;4.35;;;0.85;;
62990;SDS011;49084;48.204;16.202;2022-09-09T05:06:16;1.60;;;1.13;;
62990;SDS011;49084;48.204;16.202;2022-09-09T05:08:43;2.27;;;0.83;;
62990;SDS011;49084;48.204;16.202;2022-09-09T05:11:13;2.40;;;0.85;;
62990;SDS011;49084;48.204;16.202;2022-09-09T05:13:39;2.05;;;0.90;;
62990;SDS011;49084;48.204;16.202;2022-09-09T05:16:05;3.15;;;1.15;;
62990;SDS011;49084;48.204;16.202;2022-09-09T05:18:30;1.60;;;1.00;;
62990;SDS011;49084;48.204;16.202;2022-09-09T05:20:59;6.30;;;1.20;;
62990;SDS011;49084;48.204;16.202;2022-09-09T05:23:25;1.80;;;1.08;;
62990;SDS011;49084;48.204;16.202;2022-09-09T05:25:55;1.30;;;1.10;;
62990;SDS011;49084;48.204;16.202;2022-09-09T05:28:22;1.77;;;0.80;;
62990;SDS011;49084;48.204;16.202;2022-09-09T05:31:13;1.63;;;1.00;;
62990;SDS011;49084;48.204;16.202;2022-09-09T05:33:39;2.10;;;1.13;;
62990;SDS011;49084;48.204;16.202;2022-09-09T05:36:07;2.15;;;0.82;;
62990;SDS011;49084;48.204;16.202;2022-09-09T05:38:35;3.67;;;1.08;;
62990;SDS011;49084;48.204;16.202;2022-09-09T05:41:03;2.35;;;0.80;;
62990;SDS011;49084;48.204;16.202;2022-09-09T05:43:29;2.75;;;0.90;;
62990;SDS011;49084;48.204;16.202;2022-09-09T05:46:00;2.10;;;0.82;;
62990;SDS011;49084;48.204;16.202;2022-09-09T05:48:37;5.15;;;0.90;;
62990;SDS011;49084;48.204;16.202;2022-09-09T05:51:04;6.03;;;0.82;;
62990;SDS011;49084;48.204;16.202;2022-09-09T05:53:31;5.10;;;1.08;;
62990;SDS011;49084;48.204;16.202;2022-09-09T05:56:03;1.15;;;0.65;;
62990;SDS011;49084;48.204;16.202;2022-09-09T05:58:33;2.75;;;0.95;;
62990;SDS011;49084;48.204;16.202;2022-09-09T06:01:00;2.78;;;0.80;;
62990;SDS011;49084;48.204;16.202;2022-09-09T06:03:29;3.38;;;0.98;;
62990;SDS011;49084;48.204;16.202;2022-09-09T06:05:58;3.55;;;1.00;;
62990;SDS011;49084;48.204;16.202;2022-09-09T06:08:25;4.00;;;0.80;;
62990;SDS011;49084;48.204;16.202;2022-09-09T06:10:51;0.73;;;0.73;;
62990;SDS011;49084;48.204;16.202;2022-09-09T06:13:17;3.88;;;0.73;;
62990;SDS011;49084;48.204;16.202;2022-09-09T06:15:50;4.30;;;0.82;;
62990;SDS011;49084;48.204;16.202;2022-09-09T06:18:16;3.92;;;0.77;;
62990;SDS011;49084;48.204;16.202;2022-09-09T06:20:52;3.42;;;1.40;;
62990;SDS011;49084;48.204;16.202;2022-09-09T06:23:21;3.13;;;1.03;;
62990;SDS011;49084;48.204;16.202;2022-09-09T06:25:47;3.92;;;0.80;;
62990;SDS011;49084;48.204;16.202;2022-09-09T06:28:14;1.27;;;0.85;;
62990;SDS011;49084;48.204;16.202;2022-09-09T06:30:40;2.95;;;0.50;;
62990;SDS011;49084;48.204;16.202;2022-09-09T06:33:06;0.82;;;0.75;;
62990;SDS011;49084;48.204;16.202;2022-09-09T06:35:32;2.92;;;0.30;;
62990;SDS011;49084;48.204;16.202;2022-09-09T06:37:57;2.72;;;0.50;;
62990;SDS011;49084;48.204;16.202;2022-09-09T06:40:24;4.50;;;0.55;;
62990;SDS011;49084;48.204;16.202;2022-09-09T06:42:50;3.08;;;0.40;;
62990;SDS011;49084;48.204;16.202;2022-09-09T06:45:16;0.85;;;0.50;;
62990;SDS011;49084;48.204;16.202;2022-09-09T06:47:42;2.50;;;0.68;;
62990;SDS011;49084;48.204;16.202;2022-09-09T06:50:08;1.17;;;0.43;;
62990;SDS011;49084;48.204;16.202;2022-09-09T06:52:35;1.27;;;0.40;;
62990;SDS011;49084;48.204;16.202;2022-09-09T06:55:01;1.40;;;0.40;;
62990;SDS011;49084;48.204;16.202;2022-09-09T06:57:27;2.08;;;0.77;;
62990;SDS011;49084;48.204;16.202;2022-09-09T06:59:53;2.58;;;0.70;;
62990;SDS011;49084;48.204;16.202;2022-09-09T07:02:19;3.42;;;0.80;;
62990;SDS011;49084;48.204;16.202;2022-09-09T07:04:44;4.88;;;0.60;;
62990;SDS011;49084;48.204;16.202;2022-09-09T07:07:11;1.40;;;0.60;;
62990;SDS011;49084;48.204;16.202;2022-09-09T07:09:38;2.60;;;0.60;;
62990;SDS011;49084;48.204;16.202;2022-09-09T07:12:05;3.72;;;0.40;;
62990;SDS011;49084;48.204;16.202;2022-09-09T07:14:31;2.17;;;0.50;;
62990;SDS011;49084;48.204;16.202;2022-09-09T07:16:58;2.33;;;0.70;;
62990;SDS011;49084;48.204;16.202;2022-09-09T07:19:25;0.57;;;0.52;;
62990;SDS011;49084;48.204;16.202;2022-09-09T07:21:50;1.20;;;0.50;;
62990;SDS011;49084;48.204;16.202;2022-09-09T07:24:16;2.20;;;0.70;;
62990;SDS011;49084;48.204;16.202;2022-09-09T07:26:42;3.47;;;0.60;;
62990;SDS011;49084;48.204;16.202;2022-09-09T07:29:09;1.63;;;0.50;;
62990;SDS011;49084;48.204;16.202;2022-09-09T07:31:36;1.20;;;0.45;;
62990;SDS011;49084;48.204;16.202;2022-09-09T07:36:31;1.58;;;0.40;;
62990;SDS011;49084;48.204;16.202;2022-09-09T07:39:05;2.03;;;0.47;;
62990;SDS011;49084;48.204;16.202;2022-09-09T07:44:07;3.83;;;0.40;;
62990;SDS011;49084;48.204;16.202;2022-09-09T07:46:38;0.50;;;0.40;;
62990;SDS011;49084;48.204;16.202;2022-09-09T07:49:06;1.25;;;0.40;;
62990;SDS011;49084;48.204;16.202;2022-09-09T07:51:34;1.02;;;0.30;;
62990;SDS011;49084;48.204;16.202;2022-09-09T07:54:04;0.77;;;0.10;;
62990;SDS011;49084;48.204;16.202;2022-09-09T07:56:32;1.95;;;0.30;;
62990;SDS011;49084;48.204;16.202;2022-09-09T07:58:58;0.75;;;0.45;;
62990;SDS011;49084;48.204;16.202;2022-09-09T08:01:28;1.77;;;0.40;;
62990;SDS011;49084;48.204;16.202;2022-09-09T08:04:03;0.57;;;0.50;;
62990;SDS011;49084;48.204;16.202;2022-09-09T08:06:38;3.25;;;0.50;;
62990;SDS011;49084;48.204;16.202;2022-09-09T08:09:04;1.27;;;0.38;;
62990;SDS011;49084;48.204;16.202;2022-09-09T08:11:31;3.97;;;0.60;;
62990;SDS011;49084;48.204;16.202;2022-09-09T08:13:58;2.28;;;0.82;;
62990;SDS011;49084;48.204;16.202;2022-09-09T08:16:26;1.63;;;0.57;;
62990;SDS011;49084;48.204;16.202;2022-09-09T08:18:54;1.58;;;0.20;;
62990;SDS011;49084;48.204;16.202;2022-09-09T08:21:21;0.90;;;0.20;;
62990;SDS011;49084;48.204;16.202;2022-09-09T08:23:50;2.60;;;0.13;;
62990;SDS011;49084;48.204;16.202;2022-09-09T08:26:27;4.10;;;0.25;;
62990;SDS011;49084;48.204;16.202;2022-09-09T08:29:03;1.83;;;0.30;;
62990;SDS011;49084;48.204;16.202;2022-09-09T08:31:32;0.75;;;0.20;;
62990;SDS011;49084;48.204;16.202;2022-09-09T08:33:59;2.33;;;0.30;;
62990;SDS011;49084;48.204;16.202;2022-09-09T08:36:28;0.87;;;0.30;;
62990;SDS011;49084;48.204;16.202;2022-09-09T08:38:56;0.85;;;0.22;;
62990;SDS011;49084;48.204;16.202;2022-09-09T08:44:14;0.65;;;0.28;;
62990;SDS011;49084;48.204;16.202;2022-09-09T08:49:56;4.18;;;0.65;;
62990;SDS011;49084;48.204;16.202;2022-09-09T08:52:31;0.57;;;0.40;;
62990;SDS011;49084;48.204;16.202;2022-09-09T08:57:46;3.72;;;0.40;;
62990;SDS011;49084;48.204;16.202;2022-09-09T09:00:14;1.40;;;0.17;;
62990;SDS011;49084;48.204;16.202;2022-09-09T09:05:35;3.65;;;0.88;;
62990;SDS011;49084;48.204;16.202;2022-09-09T09:08:12;2.28;;;0.47;;
62990;SDS011;49084;48.204;16.202;2022-09-09T09:10:57;2.47;;;0.50;;
62990;SDS011;49084;48.204;16.202;2022-09-09T09:18:59;0.30;;;0.10;;
62990;SDS011;49084;48.204;16.202;2022-09-09T09:21:39;2.28;;;0.22;;
62990;SDS011;49084;48.204;16.202;2022-09-09T09:24:14;1.92;;;0.20;;
62990;SDS011;49084;48.204;16.202;2022-09-09T09:26:44;0.40;;;0.20;;
62990;SDS011;49084;48.204;16.202;2022-09-09T09:29:11;3.30;;;0.20;;
62990;SDS011;49084;48.204;16.202;2022-09-09T09:31:41;0.77;;;0.20;;
62990;SDS011;49084;48.204;16.202;2022-09-09T09:34:12;1.38;;;0.20;;
62990;SDS011;49084;48.204;16.202;2022-09-09T09:36:45;0.88;;;0.20;;
62990;SDS011;49084;48.204;16.202;2022-09-09T09:39:31;2.75;;;0.40;;
62990;SDS011;49084;48.204;16.202;2022-09-09T09:42:12;5.68;;;0.50;;
62990;SDS011;49084;48.204;16.202;2022-09-09T09:44:40;0.75;;;0.15;;
62990;SDS011;49084;48.204;16.202;2022-09-09T09:49:55;1.63;;;0.47;;
62990;SDS011;49084;48.204;16.202;2022-09-09T09:52:24;3.40;;;0.20;;
62990;SDS011;49084;48.204;16.202;2022-09-09T09:54:57;0.30;;;0.20;;
62990;SDS011;49084;48.204;16.202;2022-09-09T09:57:28;1.05;;;0.25;;
62990;SDS011;49084;48.204;16.202;2022-09-09T10:02:38;1.85;;;0.20;;
62990;SDS011;49084;48.204;16.202;2022-09-09T10:05:18;3.45;;;0.40;;
62990;SDS011;49084;48.204;16.202;2022-09-09T10:07:46;1.55;;;0.30;;
62990;SDS011;49084;48.204;16.202;2022-09-09T10:10:31;1.25;;;0.47;;
62990;SDS011;49084;48.204;16.202;2022-09-09T10:29:30;1.75;;;0.40;;
62990;SDS011;49084;48.204;16.202;2022-09-09T10:43:11;1.33;;;0.40;;
62990;SDS011;49084;48.204;16.202;2022-09-09T10:45:41;2.38;;;0.40;;
62990;SDS011;49084;48.204;16.202;2022-09-09T10:56:28;0.40;;;0.20;;
62990;SDS011;49084;48.204;16.202;2022-09-09T11:04:44;0.35;;;0.15;;
62990;SDS011;49084;48.204;16.202;2022-09-09T11:07:17;0.30;;;0.20;;
62990;SDS011;49084;48.204;16.202;2022-09-09T11:09:52;1.05;;;0.30;;
62990;SDS011;49084;48.204;16.202;2022-09-09T11:12:24;1.42;;;0.30;;
62990;SDS011;49084;48.204;16.202;2022-09-09T11:15:06;1.27;;;0.70;;
62990;SDS011;49084;48.204;16.202;2022-09-09T11:17:44;3.15;;;0.47;;
62990;SDS011;49084;48.204;16.202;2022-09-09T11:20:14;1.85;;;0.30;;
62990;SDS011;49084;48.204;16.202;2022-09-09T11:22:45;1.35;;;0.60;;
62990;SDS011;49084;48.204;16.202;2022-09-09T11:25:17;1.15;;;0.50;;
62990;SDS011;49084;48.204;16.202;2022-09-09T11:41:51;0.60;;;0.40;;
62990;SDS011;49084;48.204;16.202;2022-09-09T11:44:18;3.45;;;0.28;;
62990;SDS011;49084;48.204;16.202;2022-09-09T11:46:51;2.63;;;0.45;;
62990;SDS011;49084;48.204;16.202;2022-09-09T11:53:02;0.45;;;0.20;;
62990;SDS011;49084;48.204;16.202;2022-09-09T11:55:36;0.40;;;0.30;;
62990;SDS011;49084;48.204;16.202;2022-09-09T11:57:58;1.20;;;0.40;;
62990;SDS011;49084;48.204;16.202;2022-09-09T12:03:08;1.35;;;0.45;;
62990;SDS011;49084;48.204;16.202;2022-09-09T12:11:50;1.17;;;0.43;;
62990;SDS011;49084;48.204;16.202;2022-09-09T12:14:20;0.35;;;0.30;;
62990;SDS011;49084;48.204;16.202;2022-09-09T12:16:47;2.38;;;0.30;;
62990;SDS011;49084;48.204;16.202;2022-09-09T12:19:14;2.58;;;0.73;;
62990;SDS011;49084;48.204;16.202;2022-09-09T12:24:30;0.80;;;0.40;;
62990;SDS011;49084;48.204;16.202;2022-09-09T12:27:24;1.33;;;0.40;;
62990;SDS011;49084;48.204;16.202;2022-09-09T12:32:39;0.85;;;0.30;;
62990;SDS011;49084;48.204;16.202;2022-09-09T12:35:09;2.97;;;0.60;;
62990;SDS011;49084;48.204;16.202;2022-09-09T12:37:53;2.25;;;0.80;;
62990;SDS011;49084;48.204;16.202;2022-09-09T12:40:26;1.35;;;0.52;;
62990;SDS011;49084;48.204;16.202;2022-09-09T12:42:57;0.75;;;0.50;;
62990;SDS011;49084;48.204;16.202;2022-09-09T12:50:21;1.83;;;0.60;;
62990;SDS011;49084;48.204;16.202;2022-09-09T12:53:03;2.28;;;0.68;;
62990;SDS011;49084;48.204;16.202;2022-09-09T12:55:37;2.50;;;0.65;;
62990;SDS011;49084;48.204;16.202;2022-09-09T12:58:04;2.58;;;0.68;;
62990;SDS011;49084;48.204;16.202;2022-09-09T13:00:32;1.50;;;0.80;;
62990;SDS011;49084;48.204;16.202;2022-09-09T13:03:03;1.98;;;0.50;;
62990;SDS011;49084;48.204;16.202;2022-09-09T13:05:42;2.60;;;0.60;;
62990;SDS011;49084;48.204;16.202;2022-09-09T13:08:08;4.07;;;0.82;;
62990;SDS011;49084;48.204;16.202;2022-09-09T13:10:40;2.00;;;0.47;;
62990;SDS011;49084;48.204;16.202;2022-09-09T13:13:15;0.50;;;0.50;;
62990;SDS011;49084;48.204;16.202;2022-09-09T13:16:01;2.22;;;0.80;;
62990;SDS011;49084;48.204;16.202;2022-09-09T13:18:30;3.42;;;0.70;;
62990;SDS011;49084;48.204;16.202;2022-09-09T13:20:58;2.08;;;0.43;;
62990;SDS011;49084;48.204;16.202;2022-09-09T13:23:29;2.00;;;0.50;;
62990;SDS011;49084;48.204;16.202;2022-09-09T13:26:00;2.40;;;0.43;;
62990;SDS011;49084;48.204;16.202;2022-09-09T13:28:29;2.60;;;0.45;;
62990;SDS011;49084;48.204;16.202;2022-09-09T13:30:59;4.10;;;0.40;;
62990;SDS011;49084;48.204;16.202;2022-09-09T13:33:29;2.60;;;0.50;;
62990;SDS011;49084;48.204;16.202;2022-09-09T13:36:02;2.85;;;0.60;;
62990;SDS011;49084;48.204;16.202;2022-09-09T13:38:35;5.50;;;0.60;;
62990;SDS011;49084;48.204;16.202;2022-09-09T13:41:19;2.72;;;0.55;;
62990;SDS011;49084;48.204;16.202;2022-09-09T13:43:47;1.50;;;0.40;;
62990;SDS011;49084;48.204;16.202;2022-09-09T13:51:34;1.35;;;0.38;;
62990;SDS011;49084;48.204;16.202;2022-09-09T13:54:02;1.73;;;0.90;;
62990;SDS011;49084;48.204;16.202;2022-09-09T13:56:30;3.83;;;0.60;;
62990;SDS011;49084;48.204;16.202;2022-09-09T13:58:56;6.25;;;1.02;;
62990;SDS011;49084;48.204;16.202;2022-09-09T14:01:23;2.20;;;0.50;;
62990;SDS011;49084;48.204;16.202;2022-09-09T14:03:49;8.25;;;2.17;;
62990;SDS011;49084;48.204;16.202;2022-09-09T14:06:15;1.48;;;0.50;;
62990;SDS011;49084;48.204;16.202;2022-09-09T14:08:41;1.02;;;0.40;;
62990;SDS011;49084;48.204;16.202;2022-09-09T14:11:08;2.20;;;0.50;;
62990;SDS011;49084;48.204;16.202;2022-09-09T14:13:37;0.70;;;0.50;;
62990;SDS011;49084;48.204;16.202;2022-09-09T14:16:04;0.73;;;0.45;;
62990;SDS011;49084;48.204;16.202;2022-09-09T14:18:30;1.25;;;0.70;;
62990;SDS011;49084;48.204;16.202;2022-09-09T14:20:55;0.88;;;0.65;;
62990;SDS011;49084;48.204;16.202;2022-09-09T14:23:23;1.42;;;0.35;;
62990;SDS011;49084;48.204;16.202;2022-09-09T14:25:49;2.80;;;0.40;;
62990;SDS011;49084;48.204;16.202;2022-09-09T14:28:16;2.85;;;0.45;;
62990;SDS011;49084;48.204;16.202;2022-09-09T14:30:42;1.02;;;0.32;;
62990;SDS011;49084;48.204;16.202;2022-09-09T14:33:10;4.68;;;0.60;;
62990;SDS011;49084;48.204;16.202;2022-09-09T14:35:37;1.33;;;0.50;;
62990;SDS011;49084;48.204;16.202;2022-09-09T14:38:03;0.73;;;0.50;;
62990;SDS011;49084;48.204;16.202;2022-09-09T14:40:30;0.40;;;0.40;;
62990;SDS011;49084;48.204;16.202;2022-09-09T14:42:56;1.27;;;0.70;;
62990;SDS011;49084;48.204;16.202;2022-09-09T14:45:23;3.92;;;0.90;;
62990;SDS011;49084;48.204;16.202;2022-09-09T14:47:50;3.08;;;0.77;;
62990;SDS011;49084;48.204;16.202;2022-09-09T14:50:17;5.22;;;0.95;;
62990;SDS011;49084;48.204;16.202;2022-09-09T14:52:43;1.25;;;0.70;;
62990;SDS011;49084;48.204;16.202;2022-09-09T14:55:09;4.22;;;0.73;;
62990;SDS011;49084;48.204;16.202;2022-09-09T14:57:36;1.52;;;0.70;;
62990;SDS011;49084;48.204;16.202;2022-09-09T15:00:02;2.35;;;0.60;;
62990;SDS011;49084;48.204;16.202;2022-09-09T15:02:29;2.83;;;0.40;;
62990;SDS011;49084;48.204;16.202;2022-09-09T15:04:55;1.98;;;0.30;;
62990;SDS011;49084;48.204;16.202;2022-09-09T15:07:23;2.58;;;0.40;;
62990;SDS011;49084;48.204;16.202;2022-09-09T15:09:53;4.68;;;0.57;;
62990;SDS011;49084;48.204;16.202;2022-09-09T15:12:19;2.10;;;0.77;;
62990;SDS011;49084;48.204;16.202;2022-09-09T15:14:45;1.90;;;0.90;;
62990;SDS011;49084;48.204;16.202;2022-09-09T15:17:11;1.88;;;0.52;;
62990;SDS011;49084;48.204;16.202;2022-09-09T15:19:37;1.42;;;0.55;;
62990;SDS011;49084;48.204;16.202;2022-09-09T15:22:04;2.63;;;0.60;;
62990;SDS011;49084;48.204;16.202;2022-09-09T15:24:30;1.02;;;0.40;;
62990;SDS011;49084;48.204;16.202;2022-09-09T15:26:56;1.20;;;0.40;;
62990;SDS011;49084;48.204;16.202;2022-09-09T15:29:22;0.82;;;0.77;;
62990;SDS011;49084;48.204;16.202;2022-09-09T15:31:48;1.05;;;0.20;;
62990;SDS011;49084;48.204;16.202;2022-09-09T15:34:14;3.10;;;0.43;;
62990;SDS011;49084;48.204;16.202;2022-09-09T15:36:41;0.45;;;0.40;;
62990;SDS011;49084;48.204;16.202;2022-09-09T15:39:09;2.88;;;0.70;;
62990;SDS011;49084;48.204;16.202;2022-09-09T15:41:41;2.72;;;0.80;;
62990;SDS011;49084;48.204;16.202;2022-09-09T15:44:08;1.83;;;0.68;;
62990;SDS011;49084;48.204;16.202;2022-09-09T15:46:37;1.60;;;0.30;;
62990;SDS011;49084;48.204;16.202;2022-09-09T15:51:36;0.82;;;0.30;;
62990;SDS011;49084;48.204;16.202;2022-09-09T15:54:07;1.65;;;0.63;;
62990;SDS011;49084;48.204;16.202;2022-09-09T15:56:38;1.27;;;0.50;;
62990;SDS011;49084;48.204;16.202;2022-09-09T15:59:04;0.45;;;0.40;;
62990;SDS011;49084;48.204;16.202;2022-09-09T16:01:30;0.65;;;0.40;;
62990;SDS011;49084;48.204;16.202;2022-09-09T16:03:56;0.60;;;0.30;;
62990;SDS011;49084;48.204;16.202;2022-09-09T16:06:23;1.10;;;0.30;;
62990;SDS011;49084;48.204;16.202;2022-09-09T16:08:51;2.60;;;0.50;;
62990;SDS011;49084;48.204;16.202;2022-09-09T16:11:36;1.08;;;0.60;;
62990;SDS011;49084;48.204;16.202;2022-09-09T16:14:03;0.57;;;0.52;;
62990;SDS011;49084;48.204;16.202;2022-09-09T16:16:31;2.90;;;0.70;;
62990;SDS011;49084;48.204;16.202;2022-09-09T16:18:58;1.40;;;0.68;;
62990;SDS011;49084;48.204;16.202;2022-09-09T16:24:03;0.82;;;0.70;;
62990;SDS011;49084;48.204;16.202;2022-09-09T16:26:30;1.35;;;0.80;;
62990;SDS011;49084;48.204;16.202;2022-09-09T16:28:58;2.38;;;0.63;;
62990;SDS011;49084;48.204;16.202;2022-09-09T16:31:26;1.67;;;0.50;;
62990;SDS011;49084;48.204;16.202;2022-09-09T16:33:53;0.45;;;0.45;;
62990;SDS011;49084;48.204;16.202;2022-09-09T16:36:28;0.95;;;0.45;;
62990;SDS011;49084;48.204;16.202;2022-09-09T16:38:58;1.73;;;0.80;;
62990;SDS011;49084;48.204;16.202;2022-09-09T16:41:26;2.70;;;0.60;;
62990;SDS011;49084;48.204;16.202;2022-09-09T16:43:53;1.20;;;0.70;;
62990;SDS011;49084;48.204;16.202;2022-09-09T16:46:24;2.38;;;0.80;;
62990;SDS011;49084;48.204;16.202;2022-09-09T16:48:50;2.05;;;0.65;;
62990;SDS011;49084;48.204;16.202;2022-09-09T16:51:20;1.40;;;0.80;;
62990;SDS011;49084;48.204;16.202;2022-09-09T16:53:49;1.63;;;0.77;;
62990;SDS011;49084;48.204;16.202;2022-09-09T16:56:16;0.65;;;0.65;;
62990;SDS011;49084;48.204;16.202;2022-09-09T16:58:53;1.98;;;0.70;;
62990;SDS011;49084;48.204;16.202;2022-09-09T17:01:20;1.63;;;1.10;;
62990;SDS011;49084;48.204;16.202;2022-09-09T17:03:47;3.20;;;1.30;;
62990;SDS011;49084;48.204;16.202;2022-09-09T17:06:16;1.80;;;1.35;;
62990;SDS011;49084;48.204;16.202;2022-09-09T17:08:42;2.75;;;1.50;;
62990;SDS011;49084;48.204;16.202;2022-09-09T17:11:11;2.97;;;1.35;;
62990;SDS011;49084;48.204;16.202;2022-09-09T17:13:40;4.93;;;2.20;;
62990;SDS011;49084;48.204;16.202;2022-09-09T17:16:07;4.85;;;2.70;;
62990;SDS011;49084;48.204;16.202;2022-09-09T17:18:33;2.35;;;1.73;;
62990;SDS011;49084;48.204;16.202;2022-09-09T17:21:02;2.85;;;2.10;;
62990;SDS011;49084;48.204;16.202;2022-09-09T17:23:34;3.28;;;1.98;;
62990;SDS011;49084;48.204;16.202;2022-09-09T17:26:03;4.30;;;2.03;;
62990;SDS011;49084;48.204;16.202;2022-09-09T17:28:30;2.75;;;1.95;;
62990;SDS011;49084;48.204;16.202;2022-09-09T17:30:57;3.53;;;1.67;;
62990;SDS011;49084;48.204;16.202;2022-09-09T17:33:28;4.93;;;2.00;;
62990;SDS011;49084;48.204;16.202;2022-09-09T17:35:56;1.23;;;1.13;;
62990;SDS011;49084;48.204;16.202;2022-09-09T17:38:23;4.03;;;1.40;;